createdAt,value
2023-01-17T00:02:06.557Z,0.35
2023-01-17T00:04:52.593Z,0.28
2023-01-17T00:07:40.849Z,0.27
2023-01-17T00:10:18.857Z,0.44
2023-01-17T00:12:51.987Z,0.26
2023-01-17T00:15:20.154Z,0.40
2023-01-17T00:17:48.803Z,0.35
2023-01-17T00:20:36.727Z,0.43
2023-01-17T00:23:34.001Z,0.43
2023-01-17T00:26:04.540Z,0.54
2023-01-17T00:28:34.700Z,0.59
2023-01-17T00:31:01.870Z,0.53
2023-01-17T00:33:29.195Z,0.30
2023-01-17T00:35:57.696Z,0.36
2023-01-17T00:38:27.103Z,0.24
2023-01-17T00:40:54.539Z,0.22
2023-01-17T00:43:41.996Z,0.23
2023-01-17T00:46:27.500Z,0.33
2023-01-17T00:49:13.095Z,0.28
2023-01-17T00:51:58.670Z,0.13
2023-01-17T00:54:44.459Z,-0.06
2023-01-17T00:57:29.883Z,0.08
2023-01-17T01:00:15.384Z,0.01
2023-01-17T01:03:00.839Z,0.14
2023-01-17T01:05:46.839Z,0.27
2023-01-17T01:08:36.510Z,0.45
2023-01-17T01:11:26.823Z,0.13
2023-01-17T01:14:12.778Z,0.08
2023-01-17T01:16:58.909Z,0.21
2023-01-17T01:19:44.937Z,0.40
2023-01-17T01:22:30.861Z,0.49
2023-01-17T01:25:16.444Z,0.24
2023-01-17T01:28:02.088Z,0.24
2023-01-17T01:30:47.717Z,0.43
2023-01-17T01:33:18.870Z,0.47
2023-01-17T01:35:47.942Z,0.53
2023-01-17T01:38:15.386Z,0.36
2023-01-17T01:40:44.599Z,0.43
2023-01-17T01:43:14.580Z,0.56
2023-01-17T01:45:46.944Z,-0.28
2023-01-17T01:48:29.233Z,0.05
2023-01-17T01:50:56.340Z,0.30
2023-01-17T01:53:23.526Z,0.29
2023-01-17T01:55:52.341Z,0.13
2023-01-17T01:58:24.438Z,0.38
2023-01-17T02:00:51.762Z,0.38
2023-01-17T02:03:26.084Z,0.07
2023-01-17T02:05:53.351Z,0.28
2023-01-17T02:08:23.026Z,0.47
2023-01-17T02:10:51.257Z,0.51
2023-01-17T02:13:20.858Z,0.50
2023-01-17T02:16:29.117Z,0.28
2023-01-17T02:19:14.581Z,0.17
2023-01-17T02:21:55.903Z,0.19
2023-01-17T02:24:55.459Z,0.33
2023-01-17T02:27:25.723Z,0.34
2023-01-17T02:30:31.966Z,0.54
2023-01-17T02:33:19.357Z,-0.02
2023-01-17T02:36:04.623Z,0.30
2023-01-17T02:38:51.880Z,0.49
2023-01-17T02:41:33.617Z,0.46
2023-01-17T02:44:02.205Z,-0.11
2023-01-17T02:46:29.480Z,0.11
2023-01-17T02:48:58.867Z,0.44
2023-01-17T02:51:51.766Z,0.48
2023-01-17T02:54:32.653Z,0.53
2023-01-17T02:57:33.528Z,0.51
2023-01-17T03:00:29.433Z,0.32
2023-01-17T03:03:05.212Z,0.41
2023-01-17T03:05:50.277Z,0.33
2023-01-17T03:08:18.433Z,0.41
2023-01-17T03:10:46.131Z,0.45
2023-01-17T03:13:13.257Z,0.52
2023-01-17T03:15:41.023Z,0.37
2023-01-17T03:18:13.896Z,0.62
2023-01-17T03:20:41.458Z,0.17
2023-01-17T03:23:08.966Z,0.05
2023-01-17T03:25:36.068Z,0.32
2023-01-17T03:28:04.034Z,0.40
2023-01-17T03:30:31.368Z,0.46
2023-01-17T03:32:58.478Z,0.27
2023-01-17T03:35:25.613Z,0.10
2023-01-17T03:37:52.735Z,0.28
2023-01-17T03:40:19.885Z,0.44
2023-01-17T03:42:47.196Z,0.52
2023-01-17T03:45:14.333Z,0.61
2023-01-17T03:47:41.418Z,0.48
2023-01-17T03:50:09.534Z,0.44
2023-01-17T03:52:36.714Z,0.36
2023-01-17T03:55:04.027Z,0.55
2023-01-17T03:57:31.262Z,0.38
2023-01-17T03:59:58.341Z,0.43
2023-01-17T04:02:26.075Z,0.38
2023-01-17T04:04:53.234Z,0.24
2023-01-17T04:07:20.553Z,0.25
2023-01-17T04:09:47.618Z,0.32
2023-01-17T04:12:15.036Z,0.25
2023-01-17T04:14:42.145Z,0.32
2023-01-17T04:17:18.528Z,-0.04
2023-01-17T04:19:46.018Z,-0.09
2023-01-17T04:22:13.126Z,0.04
2023-01-17T04:24:40.320Z,0.43
2023-01-17T04:27:07.732Z,0.60
2023-01-17T04:29:36.243Z,0.51
2023-01-17T04:32:03.525Z,0.33
2023-01-17T04:34:30.617Z,0.38
2023-01-17T04:36:57.785Z,0.52
2023-01-17T04:39:24.877Z,0.42
2023-01-17T04:41:51.922Z,0.59
2023-01-17T04:44:19.094Z,0.61
2023-01-17T04:46:46.225Z,0.65
2023-01-17T04:49:13.499Z,0.69
2023-01-17T04:51:40.734Z,0.78
2023-01-17T04:54:07.923Z,0.66
2023-01-17T04:56:35.048Z,0.46
2023-01-17T04:59:02.166Z,0.51
2023-01-17T05:01:29.383Z,0.71
2023-01-17T05:03:56.555Z,0.81
2023-01-17T05:06:23.728Z,0.60
2023-01-17T05:08:50.811Z,0.75
2023-01-17T05:11:18.111Z,0.72
2023-01-17T05:13:47.509Z,0.65
2023-01-17T05:16:14.553Z,0.62
2023-01-17T05:18:41.759Z,0.68
2023-01-17T05:21:08.872Z,0.83
2023-01-17T05:23:35.975Z,0.75
2023-01-17T05:26:03.085Z,0.89
2023-01-17T05:28:30.171Z,0.96
2023-01-17T05:30:57.321Z,0.98
2023-01-17T05:33:24.496Z,0.97
2023-01-17T05:35:51.642Z,1.03
2023-01-17T05:38:18.965Z,1.02
2023-01-17T05:40:46.043Z,0.79
2023-01-17T05:43:13.110Z,0.93
2023-01-17T05:45:40.269Z,0.91
2023-01-17T05:48:07.852Z,0.98
2023-01-17T05:50:37.439Z,1.02
2023-01-17T05:53:10.298Z,0.79
2023-01-17T05:55:38.395Z,0.70
2023-01-17T05:58:07.359Z,0.78
2023-01-17T06:00:34.955Z,0.83
2023-01-17T06:03:02.176Z,0.88
2023-01-17T06:05:30.947Z,0.81
2023-01-17T06:07:58.607Z,0.85
2023-01-17T06:10:26.841Z,0.93
2023-01-17T06:13:09.006Z,1.04
2023-01-17T06:15:37.664Z,1.08
2023-01-17T06:18:09.628Z,1.12
2023-01-17T06:20:37.340Z,1.19
2023-01-17T06:23:05.831Z,0.94
2023-01-17T06:25:41.386Z,1.00
2023-01-17T06:28:08.565Z,1.11
2023-01-17T06:30:36.667Z,0.74
2023-01-17T06:33:04.774Z,0.67
2023-01-17T06:35:32.240Z,0.90
2023-01-17T06:38:00.578Z,0.93
2023-01-17T06:40:29.726Z,1.01
2023-01-17T06:43:01.807Z,1.11
2023-01-17T06:45:30.094Z,1.19
2023-01-17T06:47:59.303Z,1.18
2023-01-17T06:50:27.034Z,1.24
2023-01-17T06:52:59.628Z,1.26
2023-01-17T06:55:31.038Z,0.95
2023-01-17T06:57:59.943Z,0.98
2023-01-17T07:00:27.908Z,1.01
2023-01-17T07:02:55.133Z,1.09
2023-01-17T07:05:22.345Z,1.19
2023-01-17T07:07:50.003Z,1.15
2023-01-17T07:10:17.263Z,1.02
2023-01-17T07:12:44.354Z,1.07
2023-01-17T07:15:12.114Z,1.14
2023-01-17T07:17:39.437Z,1.21
2023-01-17T07:20:07.327Z,1.32
2023-01-17T07:22:34.514Z,1.38
2023-01-17T07:25:01.623Z,1.37
2023-01-17T07:27:30.548Z,1.26
2023-01-17T07:29:58.064Z,1.21
2023-01-17T07:32:26.802Z,1.32
2023-01-17T07:34:54.760Z,1.22
2023-01-17T07:37:22.153Z,1.32
2023-01-17T07:39:49.537Z,1.40
2023-01-17T07:42:16.673Z,1.21
2023-01-17T07:44:45.573Z,1.30
2023-01-17T07:47:12.643Z,1.46
2023-01-17T07:49:39.964Z,1.44
2023-01-17T07:52:07.776Z,1.49
2023-01-17T07:54:35.040Z,1.67
2023-01-17T07:57:02.305Z,1.66
2023-01-17T07:59:29.623Z,1.55
2023-01-17T08:01:56.865Z,1.63
2023-01-17T08:04:34.672Z,1.66
2023-01-17T08:07:15.566Z,1.79
2023-01-17T08:09:43.939Z,1.41
2023-01-17T08:12:11.037Z,1.60
2023-01-17T08:14:38.100Z,1.66
2023-01-17T08:17:14.853Z,1.85
2023-01-17T08:19:42.067Z,1.97
2023-01-17T08:22:09.357Z,1.87
2023-01-17T08:24:37.688Z,1.40
2023-01-17T08:27:04.852Z,1.63
2023-01-17T08:29:32.023Z,1.57
2023-01-17T08:31:59.140Z,1.59
2023-01-17T08:34:26.567Z,1.82
2023-01-17T08:36:54.324Z,1.90
2023-01-17T08:39:21.953Z,1.90
2023-01-17T08:41:49.107Z,1.95
2023-01-17T08:44:16.347Z,1.92
2023-01-17T08:46:44.314Z,1.90
2023-01-17T08:49:12.381Z,1.54
2023-01-17T08:51:39.985Z,1.80
2023-01-17T08:54:07.277Z,1.67
2023-01-17T08:56:34.985Z,1.93
2023-01-17T08:59:03.204Z,2.09
2023-01-17T09:01:30.489Z,1.86
2023-01-17T09:03:57.748Z,2.00
2023-01-17T09:06:24.958Z,2.05
2023-01-17T09:08:52.639Z,2.20
2023-01-17T09:11:19.852Z,1.98
2023-01-17T09:13:47.001Z,2.19
2023-01-17T09:16:14.222Z,2.41
2023-01-17T09:18:41.361Z,2.32
2023-01-17T09:21:18.075Z,2.16
2023-01-17T09:23:45.243Z,2.16
2023-01-17T09:26:30.860Z,2.11
2023-01-17T09:28:58.846Z,2.27
2023-01-17T09:31:29.698Z,2.32
2023-01-17T09:33:58.440Z,2.32
2023-01-17T09:36:28.933Z,2.24
2023-01-17T09:39:00.054Z,2.27
2023-01-17T09:41:30.743Z,1.64
2023-01-17T09:44:03.636Z,1.99
2023-01-17T09:46:40.002Z,2.24
2023-01-17T09:49:13.342Z,2.42
2023-01-17T09:51:42.260Z,2.63
2023-01-17T09:54:24.981Z,2.60
2023-01-17T09:57:03.347Z,2.68
2023-01-17T09:59:44.339Z,2.65
2023-01-17T10:02:15.804Z,2.67
2023-01-17T10:05:20.801Z,2.71
2023-01-17T10:08:04.648Z,2.69
2023-01-17T10:10:42.539Z,2.72
2023-01-17T10:13:38.851Z,2.83
2023-01-17T10:16:20.830Z,2.75
2023-01-17T10:19:19.589Z,2.77
2023-01-17T10:22:04.625Z,2.78
2023-01-17T10:24:57.669Z,2.83
2023-01-17T10:27:29.320Z,2.59
2023-01-17T10:29:56.466Z,2.66
2023-01-17T10:32:29.606Z,2.59
2023-01-17T10:35:02.328Z,2.73
2023-01-17T10:37:43.075Z,2.81
2023-01-17T10:40:28.368Z,2.78
2023-01-17T10:43:06.519Z,2.73
2023-01-17T10:45:41.583Z,2.81
2023-01-17T10:48:23.151Z,2.75
2023-01-17T10:51:19.618Z,2.61
2023-01-17T10:53:49.274Z,2.69
2023-01-17T10:56:19.349Z,2.72
2023-01-17T10:58:49.291Z,3.02
2023-01-17T11:01:20.894Z,2.95
2023-01-17T11:03:54.040Z,2.73
2023-01-17T11:06:22.791Z,2.67
2023-01-17T11:09:02.298Z,2.95
2023-01-17T11:11:32.377Z,2.55
2023-01-17T11:14:04.937Z,2.49
2023-01-17T11:16:32.688Z,2.41
2023-01-17T11:19:35.564Z,2.75
2023-01-17T11:22:05.042Z,2.57
2023-01-17T11:24:42.048Z,2.50
2023-01-17T11:27:28.114Z,2.78
2023-01-17T11:30:16.941Z,2.86
2023-01-17T11:32:58.259Z,2.69
2023-01-17T11:35:57.523Z,2.81
2023-01-17T11:38:25.339Z,2.66
2023-01-17T11:41:12.758Z,2.85
2023-01-17T11:43:57.934Z,2.65
2023-01-17T11:46:28.301Z,2.92
2023-01-17T11:49:00.960Z,3.00
2023-01-17T11:51:41.656Z,3.09
2023-01-17T11:54:16.401Z,2.74
2023-01-17T11:56:46.403Z,2.75
2023-01-17T11:59:37.609Z,2.85
2023-01-17T12:02:35.802Z,3.00
2023-01-17T12:05:38.659Z,2.75
2023-01-17T12:08:20.849Z,3.07
2023-01-17T12:11:38.353Z,3.05
2023-01-17T12:14:29.110Z,3.04
2023-01-17T12:17:02.783Z,3.20
2023-01-17T12:19:49.047Z,3.26
2023-01-17T12:22:49.742Z,3.37
2023-01-17T12:25:48.110Z,3.45
2023-01-17T12:28:27.925Z,3.52
2023-01-17T12:31:10.289Z,3.32
2023-01-17T12:34:02.482Z,3.31
2023-01-17T12:36:36.001Z,3.32
2023-01-17T12:39:08.103Z,3.46
2023-01-17T12:41:58.534Z,3.53
2023-01-17T12:45:07.474Z,3.40
2023-01-17T12:47:40.434Z,3.36
2023-01-17T12:50:38.156Z,3.47
2023-01-17T12:53:30.594Z,3.28
2023-01-17T12:56:06.909Z,3.33
2023-01-17T12:58:56.227Z,3.42
2023-01-17T13:01:39.889Z,3.46
2023-01-17T13:04:26.104Z,3.30
2023-01-17T13:06:59.148Z,3.19
2023-01-17T13:09:31.897Z,3.15
2023-01-17T13:12:14.103Z,3.32
2023-01-17T13:14:41.539Z,3.41
2023-01-17T13:17:31.767Z,3.30
2023-01-17T13:20:08.762Z,3.42
2023-01-17T13:22:39.063Z,3.41
2023-01-17T13:25:27.517Z,3.29
2023-01-17T13:28:07.587Z,3.31
2023-01-17T13:30:54.919Z,3.38
2023-01-17T13:33:37.285Z,3.47
2023-01-17T13:36:25.556Z,3.45
2023-01-17T13:38:58.620Z,3.39
2023-01-17T13:41:37.003Z,3.40
2023-01-17T13:44:23.104Z,3.41
2023-01-17T13:47:02.981Z,3.48
2023-01-17T13:49:30.343Z,3.17
2023-01-17T13:52:19.205Z,3.17
2023-01-17T13:54:54.697Z,3.18
2023-01-17T13:57:29.823Z,3.13
2023-01-17T13:59:59.046Z,3.21
2023-01-17T14:02:32.104Z,3.40
2023-01-17T14:05:05.544Z,3.24
2023-01-17T14:07:35.412Z,3.20
2023-01-17T14:10:22.386Z,3.26
2023-01-17T14:12:49.818Z,3.18
2023-01-17T14:15:27.207Z,3.11
2023-01-17T14:17:58.336Z,3.02
2023-01-17T14:20:25.644Z,3.13
2023-01-17T14:23:00.016Z,3.22
2023-01-17T14:25:39.277Z,3.23
2023-01-17T14:28:20.032Z,3.30
2023-01-17T14:30:54.341Z,3.34
2023-01-17T14:33:28.844Z,3.43
2023-01-17T14:35:58.822Z,3.43
2023-01-17T14:38:28.999Z,3.33
2023-01-17T14:41:03.952Z,3.27
2023-01-17T14:43:34.880Z,3.24
2023-01-17T14:46:05.589Z,3.31
2023-01-17T14:48:32.825Z,3.29
2023-01-17T14:51:02.642Z,3.24
2023-01-17T14:53:31.694Z,3.20
2023-01-17T14:56:02.837Z,3.35
2023-01-17T14:58:35.105Z,3.47
2023-01-17T15:01:03.550Z,3.48
2023-01-17T15:03:41.520Z,3.44
2023-01-17T15:06:21.853Z,3.48
2023-01-17T15:08:50.185Z,3.35
2023-01-17T15:11:22.436Z,3.03
2023-01-17T15:13:53.369Z,3.18
2023-01-17T15:16:22.287Z,3.35
2023-01-17T15:18:49.589Z,3.36
2023-01-17T15:21:20.029Z,3.36
2023-01-17T15:23:56.518Z,3.40
2023-01-17T15:26:27.064Z,3.28
2023-01-17T15:29:04.080Z,3.18
2023-01-17T15:31:47.195Z,3.43
2023-01-17T15:34:38.157Z,3.39
2023-01-17T15:37:29.966Z,3.30
2023-01-17T15:40:19.948Z,3.33
2023-01-17T15:42:51.999Z,3.14
2023-01-17T15:45:23.736Z,3.17
2023-01-17T15:47:50.839Z,3.27
2023-01-17T15:50:24.903Z,3.20
2023-01-17T15:53:02.422Z,3.29
2023-01-17T15:55:33.407Z,3.01
2023-01-17T15:58:00.756Z,3.15
2023-01-17T16:00:38.480Z,3.06
2023-01-17T16:03:31.799Z,3.04
2023-01-17T16:06:03.004Z,3.10
2023-01-17T16:08:38.626Z,3.20
2023-01-17T16:11:07.998Z,3.06
2023-01-17T16:13:39.359Z,3.04
2023-01-17T16:16:22.368Z,3.19
2023-01-17T16:18:57.767Z,3.35
2023-01-17T16:21:28.007Z,3.43
2023-01-17T16:23:56.488Z,3.20
2023-01-17T16:26:24.418Z,3.09
2023-01-17T16:28:52.074Z,3.20
2023-01-17T16:31:22.266Z,2.96
2023-01-17T16:33:50.990Z,3.22
2023-01-17T16:36:18.406Z,3.11
2023-01-17T16:38:48.482Z,2.99
2023-01-17T16:41:15.793Z,2.98
2023-01-17T16:43:43.038Z,3.04
2023-01-17T16:46:11.969Z,3.12
2023-01-17T16:48:39.165Z,3.13
2023-01-17T16:51:07.617Z,2.84
2023-01-17T16:53:36.643Z,2.85
2023-01-17T16:56:12.190Z,3.16
2023-01-17T16:58:39.953Z,3.26
2023-01-17T17:01:15.514Z,3.15
2023-01-17T17:03:43.974Z,2.96
2023-01-17T17:06:11.754Z,3.07
2023-01-17T17:08:39.791Z,2.92
2023-01-17T17:11:21.987Z,2.95
2023-01-17T17:13:50.553Z,2.82
2023-01-17T17:16:23.908Z,2.86
2023-01-17T17:18:56.586Z,2.97
2023-01-17T17:21:24.205Z,3.05
2023-01-17T17:24:00.094Z,3.08
2023-01-17T17:26:34.334Z,3.11
2023-01-17T17:29:01.832Z,3.05
2023-01-17T17:31:29.242Z,3.06
2023-01-17T17:34:01.025Z,2.82
2023-01-17T17:36:28.559Z,2.73
2023-01-17T17:38:56.931Z,2.77
2023-01-17T17:41:29.050Z,2.75
2023-01-17T17:43:56.725Z,2.92
2023-01-17T17:46:25.625Z,2.60
2023-01-17T17:48:53.413Z,2.73
2023-01-17T17:51:32.766Z,2.74
2023-01-17T17:54:06.273Z,2.72
2023-01-17T17:56:33.850Z,2.57
2023-01-17T17:59:02.360Z,2.63
2023-01-17T18:01:29.980Z,2.62
2023-01-17T18:04:01.040Z,2.61
2023-01-17T18:06:28.133Z,2.92
2023-01-17T18:08:55.221Z,2.56
2023-01-17T18:11:26.223Z,2.71
2023-01-17T18:13:54.237Z,2.77
2023-01-17T18:16:47.870Z,2.42
2023-01-17T18:19:21.314Z,2.46
2023-01-17T18:21:50.424Z,2.63
2023-01-17T18:24:23.250Z,2.84
2023-01-17T18:26:56.087Z,2.81
2023-01-17T18:29:24.175Z,2.77
2023-01-17T18:31:52.955Z,2.84
2023-01-17T18:34:28.311Z,2.93
2023-01-17T18:36:56.401Z,2.95
2023-01-17T18:39:26.175Z,3.04
2023-01-17T18:41:54.157Z,3.02
2023-01-17T18:44:22.307Z,2.53
2023-01-17T18:46:53.801Z,2.75
2023-01-17T18:49:21.150Z,2.79
2023-01-17T18:51:51.256Z,2.87
2023-01-17T18:54:20.465Z,2.93
2023-01-17T18:56:48.963Z,3.08
2023-01-17T18:59:18.608Z,2.83
2023-01-17T19:01:46.330Z,2.83
2023-01-17T19:04:14.957Z,2.80
2023-01-17T19:06:44.421Z,2.70
2023-01-17T19:09:13.430Z,2.83
2023-01-17T19:11:40.791Z,2.71
2023-01-17T19:14:07.970Z,2.70
2023-01-17T19:16:39.551Z,2.77
2023-01-17T19:19:11.573Z,2.73
2023-01-17T19:21:38.669Z,2.46
2023-01-17T19:24:06.805Z,2.49
2023-01-17T19:26:34.269Z,2.61
2023-01-17T19:29:03.808Z,2.45
2023-01-17T19:31:35.721Z,2.47
2023-01-17T19:34:02.944Z,2.45
2023-01-17T19:36:35.884Z,2.47
2023-01-17T19:39:06.496Z,2.43
2023-01-17T19:41:36.334Z,2.32
2023-01-17T19:44:09.031Z,2.09
2023-01-17T19:46:37.203Z,2.05
2023-01-17T19:49:06.846Z,2.29
2023-01-17T19:51:34.667Z,2.44
2023-01-17T19:54:04.235Z,2.20
2023-01-17T19:56:31.769Z,2.06
2023-01-17T19:59:01.792Z,2.25
2023-01-17T20:01:34.654Z,2.45
2023-01-17T20:04:03.008Z,2.40
2023-01-17T20:06:32.854Z,2.46
2023-01-17T20:09:00.045Z,2.51
2023-01-17T20:11:28.457Z,2.62
2023-01-17T20:13:57.834Z,2.14
2023-01-17T20:16:26.822Z,2.24
2023-01-17T20:18:54.014Z,2.42
2023-01-17T20:21:26.368Z,2.37
2023-01-17T20:23:54.599Z,2.00
2023-01-17T20:26:25.394Z,2.23
2023-01-17T20:28:53.397Z,2.40
2023-01-17T20:31:23.265Z,2.50
2023-01-17T20:33:52.938Z,2.26
2023-01-17T20:36:22.008Z,2.27
2023-01-17T20:38:49.318Z,2.23
2023-01-17T20:41:19.019Z,2.28
2023-01-17T20:43:51.216Z,2.49
2023-01-17T20:46:20.130Z,2.74
2023-01-17T20:48:49.605Z,2.89
2023-01-17T20:51:17.419Z,2.81
2023-01-17T20:53:45.770Z,2.67
2023-01-17T20:56:14.741Z,2.21
2023-01-17T20:58:42.235Z,2.29
2023-01-17T21:01:12.231Z,2.45
2023-01-17T21:03:40.114Z,2.52
2023-01-17T21:06:09.963Z,2.43
2023-01-17T21:08:40.330Z,2.49
2023-01-17T21:11:10.337Z,2.66
2023-01-17T21:13:37.518Z,2.00
2023-01-17T21:16:05.723Z,2.06
2023-01-17T21:18:33.015Z,2.13
2023-01-17T21:21:14.708Z,2.40
2023-01-17T21:23:42.896Z,2.51
2023-01-17T21:26:12.828Z,2.33
2023-01-17T21:28:41.450Z,2.16
2023-01-17T21:31:34.859Z,2.43
2023-01-17T21:34:05.061Z,2.40
2023-01-17T21:36:35.070Z,1.88
2023-01-17T21:39:05.584Z,1.72
2023-01-17T21:41:35.872Z,1.83
2023-01-17T21:44:10.161Z,1.66
2023-01-17T21:46:39.379Z,1.97
2023-01-17T21:49:08.812Z,1.73
2023-01-17T21:51:54.181Z,1.70
2023-01-17T21:54:43.267Z,1.56
2023-01-17T21:57:47.615Z,1.54
2023-01-17T22:00:15.239Z,1.81
2023-01-17T22:02:47.253Z,1.77
2023-01-17T22:05:16.912Z,1.79
2023-01-17T22:08:04.775Z,1.66
2023-01-17T22:10:32.646Z,1.86
2023-01-17T22:12:59.835Z,1.80
2023-01-17T22:15:27.016Z,1.81
2023-01-17T22:17:54.332Z,2.09
2023-01-17T22:20:21.524Z,1.75
2023-01-17T22:22:48.636Z,1.50
2023-01-17T22:25:15.790Z,1.73
2023-01-17T22:27:42.896Z,2.02
2023-01-17T22:30:13.123Z,1.88
2023-01-17T22:32:40.513Z,2.04
2023-01-17T22:35:08.205Z,2.08
2023-01-17T22:37:35.850Z,1.93
2023-01-17T22:40:04.995Z,1.63
2023-01-17T22:42:35.282Z,1.72
2023-01-17T22:45:02.469Z,1.54
2023-01-17T22:47:30.828Z,1.76
2023-01-17T22:49:57.987Z,1.88
2023-01-17T22:52:25.405Z,1.83
2023-01-17T22:54:52.505Z,1.73
2023-01-17T22:57:19.607Z,1.79
2023-01-17T22:59:46.685Z,1.91
2023-01-17T23:02:15.696Z,2.00
2023-01-17T23:04:43.603Z,1.77
2023-01-17T23:07:10.942Z,1.80
2023-01-17T23:09:38.177Z,1.61
2023-01-17T23:12:05.590Z,1.49
2023-01-17T23:14:53.651Z,1.33
2023-01-17T23:17:42.316Z,1.56
2023-01-17T23:20:11.412Z,1.68
2023-01-17T23:22:38.604Z,1.90
2023-01-17T23:25:11.149Z,1.84
2023-01-17T23:28:00.081Z,1.93
2023-01-17T23:30:38.906Z,2.15
2023-01-17T23:33:16.750Z,2.19
2023-01-17T23:35:45.525Z,1.99
2023-01-17T23:38:26.213Z,1.98
2023-01-17T23:41:12.310Z,1.87
2023-01-17T23:43:39.386Z,2.04
2023-01-17T23:46:12.515Z,1.84
2023-01-17T23:48:39.652Z,1.92
2023-01-17T23:51:09.722Z,1.78
2023-01-17T23:53:38.631Z,1.78
2023-01-17T23:56:21.838Z,1.96
2023-01-17T23:58:49.216Z,1.82
